createdAt,value
2019-03-15T00:10:59.882Z,68.98
2019-03-15T00:13:29.113Z,68.10
2019-03-15T00:15:58.157Z,68.02
2019-03-15T00:18:27.268Z,68.01
2019-03-15T00:20:56.407Z,68.74
2019-03-15T00:23:25.442Z,67.74
2019-03-15T00:25:55.546Z,67.78
2019-03-15T00:28:23.584Z,68.32
2019-03-15T00:30:52.749Z,68.44
2019-03-15T00:33:21.877Z,68.37
2019-03-15T00:35:50.980Z,69.01
2019-03-15T00:38:20.052Z,68.82
2019-03-15T00:40:49.133Z,69.44
2019-03-15T00:43:18.308Z,69.27
2019-03-15T00:45:47.370Z,69.82
2019-03-15T00:48:16.478Z,69.54
2019-03-15T00:50:45.552Z,69.11
2019-03-15T00:53:14.507Z,68.85
2019-03-15T00:55:43.549Z,69.12
2019-03-15T00:58:12.772Z,69.57
2019-03-15T01:00:41.890Z,69.06
2019-03-15T01:03:11.048Z,69.50
2019-03-15T01:05:40.104Z,69.95
2019-03-15T01:08:09.216Z,69.83
2019-03-15T01:10:38.419Z,70.10
2019-03-15T01:13:07.537Z,70.11
2019-03-15T01:15:36.770Z,68.97
2019-03-15T01:18:06.211Z,69.31
2019-03-15T01:20:35.268Z,69.42
2019-03-15T01:23:04.376Z,69.71
2019-03-15T01:25:33.388Z,69.76
2019-03-15T01:28:02.568Z,69.66
2019-03-15T01:30:31.524Z,69.85
2019-03-15T01:33:01.202Z,69.62
2019-03-15T01:35:33.417Z,68.73
2019-03-15T01:37:59.369Z,69.62
2019-03-15T01:40:28.496Z,69.57
2019-03-15T01:42:57.580Z,69.56
2019-03-15T01:45:26.549Z,69.70
2019-03-15T01:47:55.573Z,69.75
2019-03-15T01:50:24.828Z,69.01
2019-03-15T01:52:53.850Z,69.54
2019-03-15T01:55:23.003Z,69.18
2019-03-15T01:57:52.048Z,69.36
2019-03-15T02:00:21.138Z,69.81
2019-03-15T02:02:50.246Z,69.41
2019-03-15T02:05:19.312Z,70.18
2019-03-15T02:07:48.364Z,69.90
2019-03-15T02:10:17.521Z,70.06
2019-03-15T02:12:47.478Z,71.19
2019-03-15T02:15:15.614Z,70.70
2019-03-15T02:17:44.722Z,70.57
2019-03-15T02:20:13.997Z,71.04
2019-03-15T02:22:42.979Z,71.39
2019-03-15T02:25:12.217Z,70.95
2019-03-15T02:27:41.284Z,71.13
2019-03-15T02:30:10.821Z,71.50
2019-03-15T02:32:40.229Z,70.87
2019-03-15T02:35:08.985Z,71.74
2019-03-15T02:37:38.002Z,71.25
2019-03-15T02:40:07.268Z,72.08
2019-03-15T02:42:36.372Z,72.11
2019-03-15T02:45:06.316Z,71.65
2019-03-15T02:47:34.828Z,71.41
2019-03-15T02:50:03.919Z,72.02
2019-03-15T02:52:32.949Z,72.88
2019-03-15T02:55:02.198Z,72.90
2019-03-15T02:57:31.260Z,72.96
2019-03-15T03:00:00.373Z,73.09
2019-03-15T03:02:29.707Z,72.48
2019-03-15T03:04:58.959Z,72.44
2019-03-15T03:07:28.063Z,72.62
2019-03-15T03:09:57.237Z,72.32
2019-03-15T03:12:26.249Z,73.01
2019-03-15T03:14:55.391Z,73.28
2019-03-15T03:17:24.542Z,72.30
2019-03-15T03:19:54.137Z,72.63
2019-03-15T03:22:22.615Z,72.08
2019-03-15T03:24:51.793Z,72.80
2019-03-15T03:27:20.817Z,72.92
2019-03-15T03:29:49.916Z,73.56
2019-03-15T03:32:19.025Z,73.27
2019-03-15T03:34:48.097Z,73.12
2019-03-15T03:37:17.226Z,72.91
2019-03-15T03:39:46.940Z,73.10
2019-03-15T03:42:16.021Z,73.14
2019-03-15T03:44:45.213Z,73.17
2019-03-15T03:47:14.228Z,72.94
2019-03-15T03:49:43.236Z,73.14
2019-03-15T03:52:12.292Z,73.43
2019-03-15T03:54:41.432Z,73.24
2019-03-15T03:57:10.721Z,73.28
2019-03-15T03:59:39.918Z,73.53
2019-03-15T04:02:09.279Z,73.19
2019-03-15T04:04:38.647Z,73.87
2019-03-15T04:07:07.808Z,73.80
2019-03-15T04:09:37.020Z,73.89
2019-03-15T04:12:06.218Z,74.30
2019-03-15T04:14:35.285Z,74.04
2019-03-15T04:17:04.409Z,73.77
2019-03-15T04:19:33.568Z,73.62
2019-03-15T04:22:02.689Z,73.82
2019-03-15T04:24:31.924Z,74.06
2019-03-15T04:27:00.866Z,73.91
2019-03-15T04:29:29.971Z,73.48
2019-03-15T04:31:59.832Z,73.66
2019-03-15T04:34:28.884Z,74.00
2019-03-15T04:36:57.963Z,75.16
2019-03-15T04:39:27.095Z,74.95
2019-03-15T04:41:56.264Z,74.49
2019-03-15T04:44:25.359Z,74.34
2019-03-15T04:46:54.752Z,74.35
2019-03-15T04:49:23.869Z,74.33
2019-03-15T04:51:52.851Z,74.27
2019-03-15T04:54:21.935Z,74.19
2019-03-15T04:56:50.956Z,74.07
2019-03-15T04:59:20.112Z,74.58
2019-03-15T05:01:49.281Z,74.37
2019-03-15T05:04:18.449Z,74.86
2019-03-15T05:06:47.983Z,74.53
2019-03-15T05:09:17.202Z,74.96
2019-03-15T05:11:46.241Z,74.35
2019-03-15T05:14:15.332Z,75.03
2019-03-15T05:16:44.502Z,74.95
2019-03-15T05:19:13.535Z,74.85
2019-03-15T05:21:42.518Z,75.12
2019-03-15T05:24:11.596Z,74.78
2019-03-15T05:26:40.664Z,74.46
2019-03-15T05:29:10.532Z,75.01
2019-03-15T05:31:40.485Z,75.18
2019-03-15T05:34:09.540Z,74.99
2019-03-15T05:36:38.686Z,74.24
2019-03-15T05:39:08.083Z,74.09
2019-03-15T05:41:37.128Z,74.00
2019-03-15T05:44:06.166Z,73.81
2019-03-15T05:46:35.616Z,73.66
2019-03-15T05:49:04.843Z,74.21
2019-03-15T05:51:34.297Z,73.33
2019-03-15T05:54:03.520Z,74.18
2019-03-15T05:56:32.777Z,73.75
2019-03-15T05:59:01.832Z,74.58
2019-03-15T06:01:31.028Z,75.02
2019-03-15T06:03:59.876Z,72.93
2019-03-15T06:06:29.117Z,73.95
2019-03-15T06:08:58.237Z,73.83
2019-03-15T06:11:27.212Z,73.38
2019-03-15T06:13:56.327Z,73.01
2019-03-15T06:16:25.462Z,71.23
2019-03-15T06:18:54.609Z,70.72
2019-03-15T06:21:23.702Z,70.57
2019-03-15T06:23:52.834Z,70.98
2019-03-15T06:26:22.074Z,71.03
2019-03-15T06:28:51.178Z,70.91
2019-03-15T06:31:20.478Z,70.38
2019-03-15T06:33:49.707Z,70.34
2019-03-15T06:36:19.074Z,72.95
2019-03-15T06:38:49.033Z,72.44
2019-03-15T06:41:18.486Z,71.01
2019-03-15T06:43:47.698Z,71.59
2019-03-15T06:46:16.847Z,71.25
2019-03-15T06:48:46.173Z,70.49
2019-03-15T06:51:17.047Z,70.67
2019-03-15T06:53:47.876Z,69.68
2019-03-15T06:56:15.248Z,68.43
2019-03-15T06:58:44.448Z,69.20
2019-03-15T07:01:13.801Z,69.60
2019-03-15T07:03:42.919Z,69.29
2019-03-15T07:06:11.994Z,69.06
2019-03-15T07:08:41.234Z,69.22
2019-03-15T07:11:10.362Z,69.44
2019-03-15T07:13:39.710Z,69.18
2019-03-15T07:16:08.932Z,69.38
2019-03-15T07:18:38.516Z,69.24
2019-03-15T07:21:07.718Z,68.58
2019-03-15T07:23:36.957Z,68.66
2019-03-15T07:26:06.653Z,67.81
2019-03-15T07:28:35.754Z,68.05
2019-03-15T07:31:04.885Z,67.57
2019-03-15T07:33:33.972Z,67.45
2019-03-15T07:36:03.578Z,67.42
2019-03-15T07:38:33.925Z,67.65
2019-03-15T07:41:03.409Z,67.66
2019-03-15T07:43:32.579Z,66.46
2019-03-15T07:46:01.782Z,65.03
2019-03-15T07:48:31.509Z,66.02
2019-03-15T07:51:00.736Z,66.44
2019-03-15T07:53:30.230Z,67.19
2019-03-15T07:55:59.742Z,65.64
2019-03-15T07:58:29.016Z,65.81
2019-03-15T08:00:58.048Z,65.95
2019-03-15T08:03:27.670Z,65.43
2019-03-15T08:05:56.704Z,65.79
2019-03-15T08:08:26.152Z,65.61
2019-03-15T08:10:55.457Z,66.06
2019-03-15T08:13:24.625Z,65.80
2019-03-15T08:15:54.792Z,66.46
2019-03-15T08:18:23.828Z,65.04
2019-03-15T08:20:52.915Z,66.13
2019-03-15T08:23:22.494Z,66.79
2019-03-15T08:25:51.658Z,66.12
2019-03-15T08:28:20.771Z,64.87
2019-03-15T08:30:50.173Z,63.64
2019-03-15T08:33:19.259Z,62.16
2019-03-15T08:35:48.609Z,61.99
2019-03-15T08:38:17.609Z,61.16
2019-03-15T08:40:46.729Z,60.41
2019-03-15T08:43:16.283Z,59.59
2019-03-15T08:45:46.332Z,58.61
2019-03-15T08:48:15.547Z,58.77
2019-03-15T08:50:44.631Z,56.75
2019-03-15T08:53:14.135Z,56.93
2019-03-15T08:55:43.734Z,54.64
2019-03-15T08:58:14.573Z,57.20
2019-03-15T09:00:42.073Z,52.00
2019-03-15T09:03:12.190Z,51.10
2019-03-15T09:05:41.270Z,52.95
2019-03-15T09:08:10.534Z,51.95
2019-03-15T09:10:39.777Z,53.23
2019-03-15T09:13:09.080Z,50.56
2019-03-15T09:15:38.763Z,50.89
2019-03-15T09:18:08.026Z,51.87
2019-03-15T09:20:37.127Z,51.10
2019-03-15T09:23:06.361Z,49.11
2019-03-15T09:25:35.466Z,50.27
2019-03-15T09:28:04.838Z,50.86
2019-03-15T09:30:34.056Z,50.90
2019-03-15T09:33:03.471Z,51.19
2019-03-15T09:35:32.579Z,48.76
2019-03-15T09:38:01.695Z,47.58
2019-03-15T09:40:32.645Z,46.64
2019-03-15T09:43:01.691Z,45.93
2019-03-15T09:45:30.902Z,45.77
2019-03-15T09:48:00.190Z,47.61
2019-03-15T09:50:40.103Z,46.94
2019-03-15T09:52:59.046Z,46.01
2019-03-15T09:55:33.191Z,46.59
2019-03-15T09:57:57.305Z,45.77
2019-03-15T10:00:26.547Z,43.89
2019-03-15T10:02:56.100Z,41.69
2019-03-15T10:05:24.811Z,36.31
2019-03-15T10:07:53.975Z,37.82
2019-03-15T10:10:23.240Z,38.40
2019-03-15T10:13:05.387Z,38.66
2019-03-15T10:15:22.027Z,39.85
2019-03-15T10:17:51.331Z,40.04
2019-03-15T10:20:21.223Z,38.86
2019-03-15T10:23:04.869Z,37.06
2019-03-15T10:25:19.550Z,37.93
2019-03-15T10:27:49.057Z,35.63
2019-03-15T10:30:18.813Z,35.71
2019-03-15T10:32:48.189Z,37.44
2019-03-15T10:35:17.246Z,37.44
2019-03-15T10:37:46.394Z,36.09
2019-03-15T10:40:16.460Z,37.57
2019-03-15T10:42:45.547Z,34.83
2019-03-15T10:45:14.787Z,34.98
2019-03-15T10:47:44.262Z,35.49
2019-03-15T10:50:13.605Z,37.09
2019-03-15T10:52:42.881Z,38.14
2019-03-15T10:55:12.085Z,39.43
2019-03-15T10:57:41.272Z,38.14
2019-03-15T11:00:12.277Z,37.73
2019-03-15T11:02:41.514Z,37.02
2019-03-15T11:05:10.854Z,34.39
2019-03-15T11:07:40.018Z,34.11
2019-03-15T11:10:09.379Z,33.33
2019-03-15T11:12:38.526Z,32.77
2019-03-15T11:15:08.572Z,32.86
2019-03-15T11:17:37.902Z,33.72
2019-03-15T11:20:07.306Z,33.63
2019-03-15T11:22:36.393Z,33.32
2019-03-15T11:25:05.797Z,32.07
2019-03-15T11:27:34.947Z,31.50
2019-03-15T11:30:04.125Z,31.78
2019-03-15T11:32:33.394Z,31.68
2019-03-15T11:35:02.569Z,32.46
2019-03-15T11:37:31.581Z,31.18
2019-03-15T11:40:00.864Z,30.71
2019-03-15T11:42:29.988Z,31.25
2019-03-15T11:44:59.194Z,32.94
2019-03-15T11:47:28.350Z,31.47
2019-03-15T11:49:57.484Z,29.82
2019-03-15T11:52:27.376Z,27.94
2019-03-15T11:54:56.530Z,28.56
2019-03-15T11:57:25.700Z,27.28
2019-03-15T11:59:54.778Z,28.28
2019-03-15T12:02:23.943Z,26.87
2019-03-15T12:04:53.101Z,27.18
2019-03-15T12:07:25.186Z,27.56
2019-03-15T12:09:54.340Z,27.33
2019-03-15T12:12:23.470Z,27.98
2019-03-15T12:14:52.551Z,28.38
2019-03-15T12:17:21.793Z,27.36
2019-03-15T12:19:50.905Z,27.54
2019-03-15T12:22:20.052Z,27.14
2019-03-15T12:24:49.469Z,27.28
2019-03-15T12:27:18.632Z,26.52
2019-03-15T12:29:47.828Z,26.25
2019-03-15T12:32:17.077Z,27.18
2019-03-15T12:34:46.189Z,27.35
2019-03-15T12:37:15.377Z,27.01
2019-03-15T12:39:44.669Z,28.41
2019-03-15T12:42:14.195Z,27.70
2019-03-15T12:44:43.278Z,27.01
2019-03-15T12:47:12.318Z,27.28
2019-03-15T12:49:41.453Z,27.16
2019-03-15T12:52:10.855Z,27.14
2019-03-15T12:54:40.510Z,27.28
2019-03-15T12:57:09.643Z,27.96
2019-03-15T12:59:38.763Z,28.39
2019-03-15T13:02:08.933Z,28.25
2019-03-15T13:04:39.105Z,28.50
2019-03-15T13:07:08.405Z,27.05
2019-03-15T13:09:38.953Z,26.89
2019-03-15T13:12:08.647Z,26.48
2019-03-15T13:14:37.779Z,26.90
2019-03-15T13:17:07.556Z,28.49
2019-03-15T13:19:36.671Z,28.92
2019-03-15T13:22:06.809Z,28.42
2019-03-15T13:24:35.638Z,30.38
2019-03-15T13:27:07.653Z,30.49
2019-03-15T13:29:34.477Z,28.92
2019-03-15T13:32:03.682Z,29.09
2019-03-15T13:34:32.756Z,29.59
2019-03-15T13:37:02.484Z,29.34
2019-03-15T13:39:32.045Z,29.96
2019-03-15T13:42:01.173Z,29.35
2019-03-15T13:44:30.418Z,29.34
2019-03-15T13:46:59.474Z,30.67
2019-03-15T13:49:28.590Z,33.13
2019-03-15T13:51:57.658Z,33.11
2019-03-15T13:54:27.177Z,32.11
2019-03-15T13:56:56.245Z,31.82
2019-03-15T13:59:26.024Z,32.33
2019-03-15T14:01:55.252Z,33.14
2019-03-15T14:04:24.438Z,32.53
2019-03-15T14:06:54.235Z,32.60
2019-03-15T14:09:23.305Z,30.82
2019-03-15T14:11:52.468Z,31.76
2019-03-15T14:14:22.104Z,31.32
2019-03-15T14:16:51.169Z,31.68
2019-03-15T14:19:20.130Z,31.56
2019-03-15T14:21:49.393Z,31.33
2019-03-15T14:24:19.140Z,31.11
2019-03-15T14:26:50.816Z,30.93
2019-03-15T14:29:17.409Z,32.72
2019-03-15T14:31:46.487Z,31.75
2019-03-15T14:34:15.637Z,33.10
2019-03-15T14:36:45.101Z,32.35
2019-03-15T14:39:14.294Z,31.79
2019-03-15T14:41:43.393Z,32.83
2019-03-15T14:44:12.747Z,32.10
2019-03-15T14:46:42.663Z,33.07
2019-03-15T14:49:11.877Z,31.37
2019-03-15T14:51:41.036Z,31.75
2019-03-15T14:54:10.229Z,32.51
2019-03-15T14:56:39.372Z,31.75
2019-03-15T14:59:09.069Z,32.12
2019-03-15T15:01:38.803Z,32.37
2019-03-15T15:04:08.518Z,32.64
2019-03-15T15:06:37.677Z,32.74
2019-03-15T15:09:07.772Z,33.28
2019-03-15T15:11:37.016Z,32.78
2019-03-15T15:14:06.326Z,32.72
2019-03-15T15:16:35.407Z,33.22
2019-03-15T15:19:04.975Z,33.21
2019-03-15T15:21:34.310Z,33.24
2019-03-15T15:24:03.407Z,36.19
2019-03-15T15:26:32.449Z,35.88
2019-03-15T15:29:01.424Z,32.57
2019-03-15T15:31:30.424Z,32.86
2019-03-15T15:33:59.253Z,32.87
2019-03-15T15:36:28.501Z,33.54
2019-03-15T15:38:57.514Z,33.62
2019-03-15T15:41:26.375Z,33.97
2019-03-15T15:43:55.604Z,34.21
2019-03-15T15:46:24.898Z,34.67
2019-03-15T15:48:53.877Z,34.01
2019-03-15T15:51:22.937Z,33.80
2019-03-15T15:53:52.090Z,33.97
2019-03-15T15:56:21.245Z,33.97
2019-03-15T15:58:51.205Z,33.73
2019-03-15T16:01:20.253Z,34.37
2019-03-15T16:03:49.247Z,34.08
2019-03-15T16:06:18.551Z,34.48
2019-03-15T16:08:47.688Z,34.75
2019-03-15T16:11:16.777Z,35.53
2019-03-15T16:13:45.799Z,36.25
2019-03-15T16:16:15.480Z,35.82
2019-03-15T16:18:44.491Z,36.14
2019-03-15T16:21:14.371Z,36.48
2019-03-15T16:23:43.875Z,36.98
2019-03-15T16:26:13.185Z,36.70
2019-03-15T16:28:42.901Z,37.40
2019-03-15T16:31:12.694Z,37.53
2019-03-15T16:33:42.578Z,37.45
2019-03-15T16:36:11.705Z,37.77
2019-03-15T16:38:42.836Z,38.74
2019-03-15T16:41:13.116Z,38.26
2019-03-15T16:43:42.269Z,38.59
2019-03-15T16:46:11.424Z,39.10
2019-03-15T16:48:40.583Z,38.85
2019-03-15T16:51:19.427Z,39.21
2019-03-15T16:53:39.953Z,39.78
2019-03-15T16:56:08.991Z,39.75
2019-03-15T16:58:45.258Z,39.51
2019-03-15T17:01:07.622Z,40.05
2019-03-15T17:03:37.966Z,40.00
2019-03-15T17:06:07.384Z,39.82
2019-03-15T17:08:36.546Z,40.67
2019-03-15T17:11:05.709Z,40.71
2019-03-15T17:13:35.069Z,41.34
2019-03-15T17:16:04.905Z,41.72
2019-03-15T17:18:34.805Z,42.23
2019-03-15T17:21:03.991Z,42.93
2019-03-15T17:23:33.054Z,43.20
2019-03-15T17:26:02.375Z,43.53
2019-03-15T17:28:31.566Z,44.43
2019-03-15T17:31:09.574Z,44.41
2019-03-15T17:33:29.798Z,44.97
2019-03-15T17:35:59.031Z,44.99
2019-03-15T17:38:28.825Z,45.52
2019-03-15T17:40:57.979Z,45.60
2019-03-15T17:43:28.074Z,45.99
2019-03-15T17:45:57.070Z,46.46
2019-03-15T17:48:26.381Z,46.35
2019-03-15T17:50:55.465Z,45.59
2019-03-15T17:53:25.158Z,45.92
2019-03-15T17:55:54.173Z,45.63
2019-03-15T17:58:25.859Z,45.66
2019-03-15T18:00:52.650Z,45.50
2019-03-15T18:03:22.173Z,45.32
2019-03-15T18:05:51.286Z,45.32
2019-03-15T18:08:20.499Z,45.53
2019-03-15T18:10:50.037Z,45.09
2019-03-15T18:13:19.258Z,44.73
2019-03-15T18:15:49.598Z,45.08
2019-03-15T18:18:19.115Z,45.14
2019-03-15T18:20:48.493Z,45.36
2019-03-15T18:23:17.849Z,46.00
2019-03-15T18:25:47.767Z,44.82
2019-03-15T18:28:16.949Z,44.83
2019-03-15T18:30:46.011Z,45.02
2019-03-15T18:33:15.177Z,44.95
2019-03-15T18:35:44.292Z,45.29
2019-03-15T18:38:13.298Z,45.64
2019-03-15T18:40:42.716Z,46.11
2019-03-15T18:43:11.793Z,46.94
2019-03-15T18:45:40.781Z,46.55
2019-03-15T18:48:09.832Z,46.97
2019-03-15T18:50:38.781Z,46.78
2019-03-15T18:53:07.913Z,47.42
2019-03-15T18:55:37.023Z,47.26
2019-03-15T18:58:06.354Z,47.53
2019-03-15T19:00:35.691Z,47.94
2019-03-15T19:03:05.009Z,47.68
2019-03-15T19:05:34.457Z,47.84
2019-03-15T19:08:03.277Z,47.76
2019-03-15T19:10:32.465Z,48.35
2019-03-15T19:13:01.460Z,48.04
2019-03-15T19:15:30.568Z,48.07
2019-03-15T19:17:59.681Z,47.86
2019-03-15T19:20:28.977Z,48.03
2019-03-15T19:22:58.076Z,52.30
2019-03-15T19:25:27.404Z,48.48
2019-03-15T19:27:56.445Z,47.73
2019-03-15T19:30:25.554Z,47.94
2019-03-15T19:32:55.284Z,48.21
2019-03-15T19:35:24.432Z,47.86
2019-03-15T19:37:53.564Z,47.63
2019-03-15T19:40:22.728Z,47.90
2019-03-15T19:42:51.741Z,47.80
2019-03-15T19:45:20.770Z,48.25
2019-03-15T19:47:49.891Z,47.78
2019-03-15T19:50:19.163Z,48.06
2019-03-15T19:52:48.297Z,48.07
2019-03-15T19:55:17.447Z,48.32
2019-03-15T19:57:46.602Z,48.78
2019-03-15T20:00:16.776Z,48.77
2019-03-15T20:02:46.479Z,49.01
2019-03-15T20:05:15.539Z,48.76
2019-03-15T20:07:44.682Z,48.68
2019-03-15T20:10:16.492Z,50.08
2019-03-15T20:12:43.057Z,49.83
2019-03-15T20:15:12.370Z,49.06
2019-03-15T20:17:41.457Z,49.05
2019-03-15T20:20:11.179Z,48.82
2019-03-15T20:22:40.466Z,48.87
2019-03-15T20:25:11.172Z,48.70
2019-03-15T20:27:40.287Z,49.11
2019-03-15T20:30:21.018Z,49.39
2019-03-15T20:32:42.148Z,49.24
2019-03-15T20:35:11.282Z,49.47
2019-03-15T20:37:41.309Z,49.55
2019-03-15T20:40:10.657Z,49.20
2019-03-15T20:42:39.826Z,49.50
2019-03-15T20:45:10.672Z,49.51
2019-03-15T20:47:39.708Z,49.85
2019-03-15T20:50:09.781Z,49.51
2019-03-15T20:52:39.051Z,49.58
2019-03-15T20:55:08.396Z,50.06
2019-03-15T20:57:37.463Z,49.64
2019-03-15T21:00:07.023Z,49.78
2019-03-15T21:02:36.699Z,49.74
2019-03-15T21:05:08.007Z,49.53
2019-03-15T21:07:35.299Z,49.93
2019-03-15T21:10:04.400Z,48.80
2019-03-15T21:12:33.217Z,49.07
2019-03-15T21:15:05.729Z,49.26
2019-03-15T21:17:31.624Z,48.97
2019-03-15T21:20:00.690Z,49.73
2019-03-15T21:22:29.752Z,49.44
2019-03-15T21:24:58.883Z,49.13
2019-03-15T21:27:30.757Z,49.12
2019-03-15T21:29:59.817Z,49.42
2019-03-15T21:32:28.869Z,49.41
2019-03-15T21:34:57.976Z,50.17
2019-03-15T21:37:29.693Z,49.68
2019-03-15T21:39:56.201Z,49.81
2019-03-15T21:42:25.257Z,50.19
2019-03-15T21:44:54.437Z,50.42
2019-03-15T21:47:24.187Z,50.82
2019-03-15T21:49:53.267Z,51.60
2019-03-15T21:52:22.984Z,52.77
2019-03-15T21:54:52.071Z,53.56
2019-03-15T21:57:21.170Z,53.17
2019-03-15T21:59:50.136Z,54.02
2019-03-15T22:02:19.140Z,54.38
2019-03-15T22:04:48.152Z,54.23
2019-03-15T22:07:17.281Z,54.88
2019-03-15T22:09:46.331Z,55.27
2019-03-15T22:12:15.310Z,56.47
2019-03-15T22:14:44.552Z,56.06
2019-03-15T22:17:13.561Z,56.03
2019-03-15T22:19:42.630Z,56.41
2019-03-15T22:22:11.753Z,57.33
2019-03-15T22:24:41.020Z,57.44
2019-03-15T22:27:10.774Z,57.57
2019-03-15T22:29:48.608Z,57.60
2019-03-15T22:32:09.258Z,57.46
2019-03-15T22:34:38.330Z,57.26
2019-03-15T22:37:07.593Z,57.82
2019-03-15T22:39:36.617Z,57.31
2019-03-15T22:42:05.779Z,57.13
2019-03-15T22:44:34.840Z,57.34
2019-03-15T22:47:04.577Z,57.33
2019-03-15T22:49:33.730Z,58.15
2019-03-15T22:52:02.785Z,58.04
2019-03-15T22:54:31.841Z,57.92
2019-03-15T22:57:01.569Z,58.28
2019-03-15T22:59:30.902Z,59.27
2019-03-15T23:02:00.115Z,59.33
2019-03-15T23:04:29.229Z,59.72
2019-03-15T23:06:58.450Z,59.77
2019-03-15T23:09:27.526Z,59.55
2019-03-15T23:11:56.824Z,59.28
2019-03-15T23:14:26.190Z,60.04
2019-03-15T23:16:56.192Z,60.29
2019-03-15T23:19:25.343Z,60.32
2019-03-15T23:21:54.421Z,59.91
2019-03-15T23:24:23.530Z,59.99
2019-03-15T23:26:52.549Z,60.61
2019-03-15T23:29:21.724Z,60.02
2019-03-15T23:31:50.828Z,61.00
2019-03-15T23:34:19.954Z,60.63
2019-03-15T23:36:48.944Z,59.94
2019-03-15T23:39:17.801Z,61.13
2019-03-15T23:41:46.945Z,61.13
2019-03-15T23:44:15.993Z,60.88
2019-03-15T23:46:45.192Z,60.49
2019-03-15T23:49:14.154Z,60.56
2019-03-15T23:51:43.192Z,60.91
2019-03-15T23:54:12.323Z,60.67
2019-03-15T23:56:41.497Z,61.58
2019-03-15T23:59:10.666Z,62.86
